sensor_id;sensor_type;location;lat;lon;timestamp;P1;durP1;ratioP1;P2;durP2;ratioP2
40022;SDS011;25713;-35.352;149.036;2023-04-26T00:01:15;2.40;;;2.20;;
40022;SDS011;25713;-35.352;149.036;2023-04-26T00:03:45;2.63;;;2.20;;
40022;SDS011;25713;-35.352;149.036;2023-04-26T00:06:14;3.45;;;2.08;;
40022;SDS011;25713;-35.352;149.036;2023-04-26T00:08:44;3.85;;;2.58;;
40022;SDS011;25713;-35.352;149.036;2023-04-26T00:11:14;3.97;;;2.30;;
40022;SDS011;25713;-35.352;149.036;2023-04-26T00:13:43;6.40;;;2.55;;
40022;SDS011;25713;-35.352;149.036;2023-04-26T00:16:15;4.03;;;2.22;;
40022;SDS011;25713;-35.352;149.036;2023-04-26T00:18:45;3.08;;;2.40;;
40022;SDS011;25713;-35.352;149.036;2023-04-26T00:21:14;4.03;;;2.20;;
40022;SDS011;25713;-35.352;149.036;2023-04-26T00:23:44;6.28;;;2.45;;
40022;SDS011;25713;-35.352;149.036;2023-04-26T00:26:13;5.07;;;2.45;;
40022;SDS011;25713;-35.352;149.036;2023-04-26T00:28:42;5.18;;;2.50;;
40022;SDS011;25713;-35.352;149.036;2023-04-26T00:31:15;4.63;;;2.60;;
40022;SDS011;25713;-35.352;149.036;2023-04-26T00:33:44;3.90;;;2.20;;
40022;SDS011;25713;-35.352;149.036;2023-04-26T00:36:14;3.97;;;2.10;;
40022;SDS011;25713;-35.352;149.036;2023-04-26T00:38:43;4.90;;;2.60;;
40022;SDS011;25713;-35.352;149.036;2023-04-26T00:41:12;4.07;;;2.60;;
40022;SDS011;25713;-35.352;149.036;2023-04-26T00:43:42;5.00;;;2.63;;
40022;SDS011;25713;-35.352;149.036;2023-04-26T00:46:11;3.22;;;2.55;;
40022;SDS011;25713;-35.352;149.036;2023-04-26T00:48:44;5.97;;;2.80;;
40022;SDS011;25713;-35.352;149.036;2023-04-26T00:51:14;4.22;;;2.47;;
40022;SDS011;25713;-35.352;149.036;2023-04-26T00:53:44;7.85;;;2.65;;
40022;SDS011;25713;-35.352;149.036;2023-04-26T00:56:13;15.48;;;2.85;;
40022;SDS011;25713;-35.352;149.036;2023-04-26T00:58:45;19.33;;;3.80;;
40022;SDS011;25713;-35.352;149.036;2023-04-26T01:01:17;13.68;;;3.42;;
40022;SDS011;25713;-35.352;149.036;2023-04-26T01:03:46;14.03;;;3.00;;
40022;SDS011;25713;-35.352;149.036;2023-04-26T01:06:16;10.98;;;3.53;;
40022;SDS011;25713;-35.352;149.036;2023-04-26T01:08:45;16.58;;;3.10;;
40022;SDS011;25713;-35.352;149.036;2023-04-26T01:11:17;9.97;;;3.20;;
40022;SDS011;25713;-35.352;149.036;2023-04-26T01:13:48;13.73;;;3.25;;
40022;SDS011;25713;-35.352;149.036;2023-04-26T01:16:21;7.55;;;2.90;;
40022;SDS011;25713;-35.352;149.036;2023-04-26T01:18:51;4.10;;;2.83;;
40022;SDS011;25713;-35.352;149.036;2023-04-26T01:21:21;6.63;;;3.30;;
40022;SDS011;25713;-35.352;149.036;2023-04-26T01:23:53;7.18;;;2.50;;
40022;SDS011;25713;-35.352;149.036;2023-04-26T01:26:23;7.50;;;2.58;;
40022;SDS011;25713;-35.352;149.036;2023-04-26T01:28:54;5.88;;;2.85;;
40022;SDS011;25713;-35.352;149.036;2023-04-26T01:31:23;7.68;;;2.72;;
40022;SDS011;25713;-35.352;149.036;2023-04-26T01:33:53;4.50;;;2.58;;
40022;SDS011;25713;-35.352;149.036;2023-04-26T01:36:22;6.25;;;2.55;;
40022;SDS011;25713;-35.352;149.036;2023-04-26T01:38:57;6.07;;;2.40;;
40022;SDS011;25713;-35.352;149.036;2023-04-26T01:41:26;4.93;;;2.67;;
40022;SDS011;25713;-35.352;149.036;2023-04-26T01:43:55;5.68;;;2.80;;
40022;SDS011;25713;-35.352;149.036;2023-04-26T01:46:25;6.15;;;2.50;;
40022;SDS011;25713;-35.352;149.036;2023-04-26T01:48:54;4.40;;;2.38;;
40022;SDS011;25713;-35.352;149.036;2023-04-26T01:51:24;6.20;;;2.47;;
40022;SDS011;25713;-35.352;149.036;2023-04-26T01:53:53;5.97;;;2.65;;
40022;SDS011;25713;-35.352;149.036;2023-04-26T01:56:25;6.32;;;2.58;;
40022;SDS011;25713;-35.352;149.036;2023-04-26T01:58:54;5.25;;;2.50;;
40022;SDS011;25713;-35.352;149.036;2023-04-26T02:01:24;4.57;;;2.42;;
40022;SDS011;25713;-35.352;149.036;2023-04-26T02:03:53;2.83;;;2.22;;
40022;SDS011;25713;-35.352;149.036;2023-04-26T02:06:23;3.42;;;2.20;;
40022;SDS011;25713;-35.352;149.036;2023-04-26T02:08:53;4.07;;;2.45;;
40022;SDS011;25713;-35.352;149.036;2023-04-26T02:11:25;5.22;;;2.65;;
40022;SDS011;25713;-35.352;149.036;2023-04-26T02:13:55;4.90;;;2.67;;
40022;SDS011;25713;-35.352;149.036;2023-04-26T02:16:24;5.57;;;2.50;;
40022;SDS011;25713;-35.352;149.036;2023-04-26T02:18:53;4.50;;;2.55;;
40022;SDS011;25713;-35.352;149.036;2023-04-26T02:21:23;4.55;;;2.63;;
40022;SDS011;25713;-35.352;149.036;2023-04-26T02:23:57;5.38;;;2.33;;
40022;SDS011;25713;-35.352;149.036;2023-04-26T02:26:27;8.27;;;2.63;;
40022;SDS011;25713;-35.352;149.036;2023-04-26T02:28:56;4.70;;;2.53;;
40022;SDS011;25713;-35.352;149.036;2023-04-26T02:31:26;4.57;;;2.88;;
40022;SDS011;25713;-35.352;149.036;2023-04-26T02:33:55;4.28;;;2.42;;
40022;SDS011;25713;-35.352;149.036;2023-04-26T02:36:25;8.15;;;2.95;;
40022;SDS011;25713;-35.352;149.036;2023-04-26T02:38:57;4.53;;;2.63;;
40022;SDS011;25713;-35.352;149.036;2023-04-26T02:41:28;5.63;;;2.20;;
40022;SDS011;25713;-35.352;149.036;2023-04-26T02:43:59;7.10;;;2.75;;
40022;SDS011;25713;-35.352;149.036;2023-04-26T02:46:29;4.05;;;2.38;;
40022;SDS011;25713;-35.352;149.036;2023-04-26T02:49:00;6.43;;;2.92;;
40022;SDS011;25713;-35.352;149.036;2023-04-26T02:51:29;6.47;;;2.47;;
40022;SDS011;25713;-35.352;149.036;2023-04-26T02:54:00;4.22;;;2.63;;
40022;SDS011;25713;-35.352;149.036;2023-04-26T02:56:31;4.47;;;2.63;;
40022;SDS011;25713;-35.352;149.036;2023-04-26T02:59:01;4.20;;;2.50;;
40022;SDS011;25713;-35.352;149.036;2023-04-26T03:01:30;6.60;;;3.28;;
40022;SDS011;25713;-35.352;149.036;2023-04-26T03:03:59;4.18;;;2.33;;
40022;SDS011;25713;-35.352;149.036;2023-04-26T03:06:29;5.72;;;2.40;;
40022;SDS011;25713;-35.352;149.036;2023-04-26T03:09:01;4.75;;;2.30;;
40022;SDS011;25713;-35.352;149.036;2023-04-26T03:11:31;5.30;;;2.50;;
40022;SDS011;25713;-35.352;149.036;2023-04-26T03:14:01;4.07;;;2.42;;
40022;SDS011;25713;-35.352;149.036;2023-04-26T03:16:30;3.97;;;2.13;;
40022;SDS011;25713;-35.352;149.036;2023-04-26T03:19:08;4.47;;;2.35;;
40022;SDS011;25713;-35.352;149.036;2023-04-26T03:21:39;5.30;;;2.53;;
40022;SDS011;25713;-35.352;149.036;2023-04-26T03:24:10;4.28;;;2.53;;
40022;SDS011;25713;-35.352;149.036;2023-04-26T03:26:40;3.88;;;2.10;;
40022;SDS011;25713;-35.352;149.036;2023-04-26T03:29:09;5.10;;;2.53;;
40022;SDS011;25713;-35.352;149.036;2023-04-26T03:31:39;3.53;;;2.45;;
40022;SDS011;25713;-35.352;149.036;2023-04-26T03:34:09;3.65;;;2.38;;
40022;SDS011;25713;-35.352;149.036;2023-04-26T03:36:38;5.35;;;2.40;;
40022;SDS011;25713;-35.352;149.036;2023-04-26T03:39:08;4.30;;;2.40;;
40022;SDS011;25713;-35.352;149.036;2023-04-26T03:41:40;5.78;;;2.40;;
40022;SDS011;25713;-35.352;149.036;2023-04-26T03:44:12;6.45;;;2.50;;
40022;SDS011;25713;-35.352;149.036;2023-04-26T03:46:42;5.10;;;2.60;;
40022;SDS011;25713;-35.352;149.036;2023-04-26T03:49:12;6.55;;;2.50;;
40022;SDS011;25713;-35.352;149.036;2023-04-26T03:51:41;6.60;;;2.40;;
40022;SDS011;25713;-35.352;149.036;2023-04-26T03:54:13;7.45;;;2.75;;
40022;SDS011;25713;-35.352;149.036;2023-04-26T03:56:43;5.45;;;2.60;;
40022;SDS011;25713;-35.352;149.036;2023-04-26T03:59:12;5.68;;;2.88;;
40022;SDS011;25713;-35.352;149.036;2023-04-26T04:01:41;4.72;;;2.55;;
40022;SDS011;25713;-35.352;149.036;2023-04-26T04:04:11;5.75;;;2.42;;
40022;SDS011;25713;-35.352;149.036;2023-04-26T04:06:40;7.85;;;2.53;;
40022;SDS011;25713;-35.352;149.036;2023-04-26T04:09:12;5.28;;;2.50;;
40022;SDS011;25713;-35.352;149.036;2023-04-26T04:11:42;5.77;;;2.63;;
40022;SDS011;25713;-35.352;149.036;2023-04-26T04:14:11;4.85;;;2.40;;
40022;SDS011;25713;-35.352;149.036;2023-04-26T04:16:41;7.43;;;2.65;;
40022;SDS011;25713;-35.352;149.036;2023-04-26T04:19:11;6.43;;;2.72;;
40022;SDS011;25713;-35.352;149.036;2023-04-26T04:21:41;3.70;;;2.45;;
40022;SDS011;25713;-35.352;149.036;2023-04-26T04:24:10;4.90;;;2.28;;
40022;SDS011;25713;-35.352;149.036;2023-04-26T04:26:41;5.32;;;2.33;;
40022;SDS011;25713;-35.352;149.036;2023-04-26T04:29:11;7.03;;;2.70;;
40022;SDS011;25713;-35.352;149.036;2023-04-26T04:31:40;7.63;;;2.72;;
40022;SDS011;25713;-35.352;149.036;2023-04-26T04:34:09;4.45;;;2.30;;
40022;SDS011;25713;-35.352;149.036;2023-04-26T04:36:41;3.97;;;2.42;;
40022;SDS011;25713;-35.352;149.036;2023-04-26T04:39:11;4.60;;;2.40;;
40022;SDS011;25713;-35.352;149.036;2023-04-26T04:41:42;5.05;;;2.28;;
40022;SDS011;25713;-35.352;149.036;2023-04-26T04:44:12;4.15;;;2.70;;
40022;SDS011;25713;-35.352;149.036;2023-04-26T04:46:42;4.03;;;2.40;;
40022;SDS011;25713;-35.352;149.036;2023-04-26T04:49:12;6.18;;;2.53;;
40022;SDS011;25713;-35.352;149.036;2023-04-26T04:51:41;3.72;;;2.28;;
40022;SDS011;25713;-35.352;149.036;2023-04-26T04:54:12;5.65;;;2.20;;
40022;SDS011;25713;-35.352;149.036;2023-04-26T04:56:47;6.95;;;2.70;;
40022;SDS011;25713;-35.352;149.036;2023-04-26T04:59:17;4.93;;;2.40;;
40022;SDS011;25713;-35.352;149.036;2023-04-26T05:01:48;5.82;;;2.55;;
40022;SDS011;25713;-35.352;149.036;2023-04-26T05:04:19;6.13;;;2.70;;
40022;SDS011;25713;-35.352;149.036;2023-04-26T05:06:49;4.40;;;2.65;;
40022;SDS011;25713;-35.352;149.036;2023-04-26T05:09:21;4.65;;;2.40;;
40022;SDS011;25713;-35.352;149.036;2023-04-26T05:14:20;5.78;;;2.47;;
40022;SDS011;25713;-35.352;149.036;2023-04-26T05:16:50;4.53;;;2.72;;
40022;SDS011;25713;-35.352;149.036;2023-04-26T05:19:19;4.45;;;2.80;;
40022;SDS011;25713;-35.352;149.036;2023-04-26T05:21:49;6.82;;;2.65;;
40022;SDS011;25713;-35.352;149.036;2023-04-26T05:24:21;4.63;;;2.40;;
40022;SDS011;25713;-35.352;149.036;2023-04-26T05:26:50;3.93;;;2.27;;
40022;SDS011;25713;-35.352;149.036;2023-04-26T05:29:44;6.30;;;2.42;;
40022;SDS011;25713;-35.352;149.036;2023-04-26T05:32:37;5.22;;;2.40;;
40022;SDS011;25713;-35.352;149.036;2023-04-26T05:35:15;5.43;;;2.30;;
40022;SDS011;25713;-35.352;149.036;2023-04-26T05:37:45;4.07;;;2.47;;
40022;SDS011;25713;-35.352;149.036;2023-04-26T05:40:17;4.75;;;2.45;;
40022;SDS011;25713;-35.352;149.036;2023-04-26T05:42:46;2.90;;;2.10;;
40022;SDS011;25713;-35.352;149.036;2023-04-26T05:45:16;5.28;;;2.80;;
40022;SDS011;25713;-35.352;149.036;2023-04-26T05:47:46;5.43;;;2.42;;
40022;SDS011;25713;-35.352;149.036;2023-04-26T05:50:15;3.97;;;2.72;;
40022;SDS011;25713;-35.352;149.036;2023-04-26T05:52:45;5.22;;;2.58;;
40022;SDS011;25713;-35.352;149.036;2023-04-26T05:55:14;3.58;;;2.30;;
40022;SDS011;25713;-35.352;149.036;2023-04-26T05:57:47;5.65;;;2.72;;
40022;SDS011;25713;-35.352;149.036;2023-04-26T06:00:16;3.58;;;2.60;;
40022;SDS011;25713;-35.352;149.036;2023-04-26T06:02:48;4.93;;;2.50;;
40022;SDS011;25713;-35.352;149.036;2023-04-26T06:05:18;3.17;;;2.38;;
40022;SDS011;25713;-35.352;149.036;2023-04-26T06:07:48;4.00;;;2.53;;
40022;SDS011;25713;-35.352;149.036;2023-04-26T06:10:20;3.55;;;2.22;;
40022;SDS011;25713;-35.352;149.036;2023-04-26T06:12:50;5.63;;;2.50;;
40022;SDS011;25713;-35.352;149.036;2023-04-26T06:15:21;3.40;;;1.83;;
40022;SDS011;25713;-35.352;149.036;2023-04-26T06:17:51;3.22;;;2.22;;
40022;SDS011;25713;-35.352;149.036;2023-04-26T06:20:20;3.00;;;2.20;;
40022;SDS011;25713;-35.352;149.036;2023-04-26T06:22:50;6.15;;;2.50;;
40022;SDS011;25713;-35.352;149.036;2023-04-26T06:25:21;5.90;;;2.30;;
40022;SDS011;25713;-35.352;149.036;2023-04-26T06:27:51;5.73;;;2.17;;
40022;SDS011;25713;-35.352;149.036;2023-04-26T06:30:20;4.22;;;2.13;;
40022;SDS011;25713;-35.352;149.036;2023-04-26T06:32:51;4.95;;;2.55;;
40022;SDS011;25713;-35.352;149.036;2023-04-26T06:35:21;4.72;;;2.30;;
40022;SDS011;25713;-35.352;149.036;2023-04-26T06:37:50;5.07;;;2.35;;
40022;SDS011;25713;-35.352;149.036;2023-04-26T06:40:22;6.28;;;2.40;;
40022;SDS011;25713;-35.352;149.036;2023-04-26T06:42:53;7.18;;;2.80;;
40022;SDS011;25713;-35.352;149.036;2023-04-26T06:45:44;2.88;;;2.22;;
40022;SDS011;25713;-35.352;149.036;2023-04-26T06:48:14;4.85;;;2.22;;
40022;SDS011;25713;-35.352;149.036;2023-04-26T06:50:45;3.50;;;2.60;;
40022;SDS011;25713;-35.352;149.036;2023-04-26T06:53:15;5.55;;;2.50;;
40022;SDS011;25713;-35.352;149.036;2023-04-26T06:55:46;4.93;;;2.40;;
40022;SDS011;25713;-35.352;149.036;2023-04-26T06:58:15;5.10;;;2.00;;
40022;SDS011;25713;-35.352;149.036;2023-04-26T07:00:45;4.35;;;2.53;;
40022;SDS011;25713;-35.352;149.036;2023-04-26T07:03:14;6.68;;;2.40;;
40022;SDS011;25713;-35.352;149.036;2023-04-26T07:05:44;5.47;;;2.40;;
40022;SDS011;25713;-35.352;149.036;2023-04-26T07:08:13;3.90;;;2.58;;
40022;SDS011;25713;-35.352;149.036;2023-04-26T07:10:43;4.05;;;2.45;;
40022;SDS011;25713;-35.352;149.036;2023-04-26T07:13:14;4.45;;;2.20;;
40022;SDS011;25713;-35.352;149.036;2023-04-26T07:15:43;6.10;;;2.67;;
40022;SDS011;25713;-35.352;149.036;2023-04-26T07:18:13;4.90;;;2.35;;
40022;SDS011;25713;-35.352;149.036;2023-04-26T07:20:42;4.00;;;2.60;;
40022;SDS011;25713;-35.352;149.036;2023-04-26T07:23:12;5.03;;;2.40;;
40022;SDS011;25713;-35.352;149.036;2023-04-26T07:25:41;5.55;;;2.38;;
40022;SDS011;25713;-35.352;149.036;2023-04-26T07:28:13;4.82;;;2.50;;
40022;SDS011;25713;-35.352;149.036;2023-04-26T07:30:42;5.05;;;2.35;;
40022;SDS011;25713;-35.352;149.036;2023-04-26T07:33:12;3.65;;;2.40;;
40022;SDS011;25713;-35.352;149.036;2023-04-26T07:35:42;3.95;;;2.10;;
40022;SDS011;25713;-35.352;149.036;2023-04-26T07:38:11;3.67;;;2.40;;
40022;SDS011;25713;-35.352;149.036;2023-04-26T07:40:40;4.85;;;2.20;;
40022;SDS011;25713;-35.352;149.036;2023-04-26T07:43:10;5.10;;;2.20;;
40022;SDS011;25713;-35.352;149.036;2023-04-26T07:45:41;4.80;;;2.70;;
40022;SDS011;25713;-35.352;149.036;2023-04-26T07:48:11;4.55;;;3.17;;
40022;SDS011;25713;-35.352;149.036;2023-04-26T07:50:40;6.30;;;3.58;;
40022;SDS011;25713;-35.352;149.036;2023-04-26T07:53:10;7.72;;;4.72;;
40022;SDS011;25713;-35.352;149.036;2023-04-26T07:55:39;8.43;;;4.78;;
40022;SDS011;25713;-35.352;149.036;2023-04-26T07:58:08;7.22;;;4.30;;
40022;SDS011;25713;-35.352;149.036;2023-04-26T08:00:40;14.35;;;6.63;;
40022;SDS011;25713;-35.352;149.036;2023-04-26T08:03:09;8.80;;;5.88;;
40022;SDS011;25713;-35.352;149.036;2023-04-26T08:05:41;10.48;;;5.47;;
40022;SDS011;25713;-35.352;149.036;2023-04-26T08:08:11;10.52;;;5.25;;
40022;SDS011;25713;-35.352;149.036;2023-04-26T08:10:40;10.38;;;5.30;;
40022;SDS011;25713;-35.352;149.036;2023-04-26T08:13:09;7.85;;;5.10;;
40022;SDS011;25713;-35.352;149.036;2023-04-26T08:15:41;7.88;;;4.47;;
40022;SDS011;25713;-35.352;149.036;2023-04-26T08:18:10;9.27;;;4.72;;
40022;SDS011;25713;-35.352;149.036;2023-04-26T08:20:40;5.60;;;4.32;;
40022;SDS011;25713;-35.352;149.036;2023-04-26T08:23:09;6.63;;;4.60;;
40022;SDS011;25713;-35.352;149.036;2023-04-26T08:25:38;12.25;;;5.80;;
40022;SDS011;25713;-35.352;149.036;2023-04-26T08:28:08;12.13;;;6.38;;
40022;SDS011;25713;-35.352;149.036;2023-04-26T08:30:37;11.95;;;6.32;;
40022;SDS011;25713;-35.352;149.036;2023-04-26T08:33:08;10.93;;;6.30;;
40022;SDS011;25713;-35.352;149.036;2023-04-26T08:35:38;7.95;;;5.50;;
40022;SDS011;25713;-35.352;149.036;2023-04-26T08:38:07;8.27;;;5.63;;
40022;SDS011;25713;-35.352;149.036;2023-04-26T08:40:54;7.32;;;5.22;;
40022;SDS011;25713;-35.352;149.036;2023-04-26T08:43:25;7.47;;;5.03;;
40022;SDS011;25713;-35.352;149.036;2023-04-26T08:45:57;6.82;;;4.50;;
40022;SDS011;25713;-35.352;149.036;2023-04-26T08:48:28;8.35;;;5.10;;
40022;SDS011;25713;-35.352;149.036;2023-04-26T08:51:03;10.57;;;5.00;;
40022;SDS011;25713;-35.352;149.036;2023-04-26T08:53:34;6.72;;;4.18;;
40022;SDS011;25713;-35.352;149.036;2023-04-26T08:56:05;9.27;;;4.60;;
40022;SDS011;25713;-35.352;149.036;2023-04-26T08:58:37;6.85;;;4.45;;
40022;SDS011;25713;-35.352;149.036;2023-04-26T09:01:08;8.52;;;4.78;;
40022;SDS011;25713;-35.352;149.036;2023-04-26T09:03:40;7.00;;;4.45;;
40022;SDS011;25713;-35.352;149.036;2023-04-26T09:06:10;5.68;;;4.47;;
40022;SDS011;25713;-35.352;149.036;2023-04-26T09:08:40;7.60;;;4.30;;
40022;SDS011;25713;-35.352;149.036;2023-04-26T09:11:10;6.57;;;4.53;;
40022;SDS011;25713;-35.352;149.036;2023-04-26T09:13:40;8.25;;;4.55;;
40022;SDS011;25713;-35.352;149.036;2023-04-26T09:16:11;6.82;;;4.10;;
40022;SDS011;25713;-35.352;149.036;2023-04-26T09:18:46;6.37;;;4.43;;
40022;SDS011;25713;-35.352;149.036;2023-04-26T09:21:17;7.03;;;4.47;;
40022;SDS011;25713;-35.352;149.036;2023-04-26T09:23:56;8.18;;;4.43;;
40022;SDS011;25713;-35.352;149.036;2023-04-26T09:26:26;6.38;;;4.45;;
40022;SDS011;25713;-35.352;149.036;2023-04-26T09:31:41;8.93;;;5.05;;
40022;SDS011;25713;-35.352;149.036;2023-04-26T09:36:47;8.35;;;5.50;;
40022;SDS011;25713;-35.352;149.036;2023-04-26T09:39:30;10.30;;;6.00;;
40022;SDS011;25713;-35.352;149.036;2023-04-26T09:42:01;9.77;;;5.47;;
40022;SDS011;25713;-35.352;149.036;2023-04-26T09:44:31;8.30;;;6.38;;
40022;SDS011;25713;-35.352;149.036;2023-04-26T09:47:03;9.07;;;6.47;;
40022;SDS011;25713;-35.352;149.036;2023-04-26T09:52:09;12.18;;;6.78;;
40022;SDS011;25713;-35.352;149.036;2023-04-26T09:54:40;11.98;;;7.47;;
40022;SDS011;25713;-35.352;149.036;2023-04-26T09:57:11;12.83;;;8.23;;
40022;SDS011;25713;-35.352;149.036;2023-04-26T09:59:41;16.38;;;8.27;;
40022;SDS011;25713;-35.352;149.036;2023-04-26T10:02:14;12.18;;;8.10;;
40022;SDS011;25713;-35.352;149.036;2023-04-26T10:04:46;13.35;;;8.13;;
40022;SDS011;25713;-35.352;149.036;2023-04-26T10:07:16;13.57;;;7.80;;
40022;SDS011;25713;-35.352;149.036;2023-04-26T10:09:47;14.07;;;6.88;;
40022;SDS011;25713;-35.352;149.036;2023-04-26T10:12:17;13.40;;;7.95;;
40022;SDS011;25713;-35.352;149.036;2023-04-26T10:14:47;13.30;;;7.82;;
40022;SDS011;25713;-35.352;149.036;2023-04-26T10:17:18;12.77;;;7.63;;
40022;SDS011;25713;-35.352;149.036;2023-04-26T10:19:48;18.08;;;7.45;;
40022;SDS011;25713;-35.352;149.036;2023-04-26T10:22:27;13.38;;;6.78;;
40022;SDS011;25713;-35.352;149.036;2023-04-26T10:24:59;11.30;;;6.63;;
40022;SDS011;25713;-35.352;149.036;2023-04-26T10:27:47;11.02;;;6.07;;
40022;SDS011;25713;-35.352;149.036;2023-04-26T10:30:17;12.75;;;6.40;;
40022;SDS011;25713;-35.352;149.036;2023-04-26T10:36:04;10.45;;;6.20;;
40022;SDS011;25713;-35.352;149.036;2023-04-26T10:38:38;12.23;;;5.80;;
40022;SDS011;25713;-35.352;149.036;2023-04-26T10:43:56;9.57;;;5.30;;
40022;SDS011;25713;-35.352;149.036;2023-04-26T10:46:34;9.57;;;5.63;;
40022;SDS011;25713;-35.352;149.036;2023-04-26T10:49:16;10.77;;;5.05;;
40022;SDS011;25713;-35.352;149.036;2023-04-26T11:00:25;9.18;;;4.35;;
40022;SDS011;25713;-35.352;149.036;2023-04-26T11:03:02;10.43;;;3.95;;
40022;SDS011;25713;-35.352;149.036;2023-04-26T11:08:36;7.90;;;3.72;;
40022;SDS011;25713;-35.352;149.036;2023-04-26T11:11:06;6.78;;;3.25;;
40022;SDS011;25713;-35.352;149.036;2023-04-26T11:13:37;9.07;;;3.42;;
40022;SDS011;25713;-35.352;149.036;2023-04-26T11:16:07;6.75;;;3.50;;
40022;SDS011;25713;-35.352;149.036;2023-04-26T11:18:39;7.05;;;3.22;;
40022;SDS011;25713;-35.352;149.036;2023-04-26T11:21:10;5.93;;;2.40;;
40022;SDS011;25713;-35.352;149.036;2023-04-26T11:23:40;6.03;;;2.90;;
40022;SDS011;25713;-35.352;149.036;2023-04-26T11:26:09;7.57;;;3.00;;
40022;SDS011;25713;-35.352;149.036;2023-04-26T11:28:39;4.03;;;2.40;;
40022;SDS011;25713;-35.352;149.036;2023-04-26T11:31:08;5.80;;;2.50;;
40022;SDS011;25713;-35.352;149.036;2023-04-26T11:33:37;5.13;;;2.50;;
40022;SDS011;25713;-35.352;149.036;2023-04-26T11:36:10;5.03;;;2.33;;
40022;SDS011;25713;-35.352;149.036;2023-04-26T11:38:40;4.57;;;2.40;;
40022;SDS011;25713;-35.352;149.036;2023-04-26T11:41:10;4.95;;;2.13;;
40022;SDS011;25713;-35.352;149.036;2023-04-26T11:43:39;6.03;;;2.17;;
40022;SDS011;25713;-35.352;149.036;2023-04-26T11:46:08;4.35;;;2.08;;
40022;SDS011;25713;-35.352;149.036;2023-04-26T11:48:37;5.22;;;2.47;;
40022;SDS011;25713;-35.352;149.036;2023-04-26T11:51:07;5.30;;;1.80;;
40022;SDS011;25713;-35.352;149.036;2023-04-26T11:53:39;3.20;;;1.77;;
40022;SDS011;25713;-35.352;149.036;2023-04-26T11:56:15;5.35;;;2.10;;
40022;SDS011;25713;-35.352;149.036;2023-04-26T11:58:46;4.63;;;2.00;;
40022;SDS011;25713;-35.352;149.036;2023-04-26T12:01:21;5.75;;;1.90;;
40022;SDS011;25713;-35.352;149.036;2023-04-26T12:03:52;4.85;;;1.60;;
40022;SDS011;25713;-35.352;149.036;2023-04-26T12:06:28;3.20;;;1.88;;
40022;SDS011;25713;-35.352;149.036;2023-04-26T12:09:00;3.90;;;1.73;;
40022;SDS011;25713;-35.352;149.036;2023-04-26T12:11:29;5.85;;;1.65;;
40022;SDS011;25713;-35.352;149.036;2023-04-26T12:14:00;4.70;;;2.05;;
40022;SDS011;25713;-35.352;149.036;2023-04-26T12:16:29;3.67;;;1.80;;
40022;SDS011;25713;-35.352;149.036;2023-04-26T12:18:59;4.35;;;1.70;;
40022;SDS011;25713;-35.352;149.036;2023-04-26T12:21:41;4.05;;;1.67;;
40022;SDS011;25713;-35.352;149.036;2023-04-26T12:24:23;3.40;;;1.55;;
40022;SDS011;25713;-35.352;149.036;2023-04-26T12:29:21;4.13;;;1.80;;
40022;SDS011;25713;-35.352;149.036;2023-04-26T12:31:50;5.15;;;1.75;;
40022;SDS011;25713;-35.352;149.036;2023-04-26T12:34:20;4.22;;;1.80;;
40022;SDS011;25713;-35.352;149.036;2023-04-26T12:36:51;3.80;;;1.65;;
40022;SDS011;25713;-35.352;149.036;2023-04-26T12:39:21;5.05;;;2.08;;
40022;SDS011;25713;-35.352;149.036;2023-04-26T12:41:50;2.72;;;1.60;;
40022;SDS011;25713;-35.352;149.036;2023-04-26T12:44:20;4.50;;;1.83;;
40022;SDS011;25713;-35.352;149.036;2023-04-26T12:46:49;3.00;;;1.60;;
40022;SDS011;25713;-35.352;149.036;2023-04-26T12:49:19;6.28;;;1.70;;
40022;SDS011;25713;-35.352;149.036;2023-04-26T12:51:48;5.05;;;1.98;;
40022;SDS011;25713;-35.352;149.036;2023-04-26T12:54:19;5.13;;;1.60;;
40022;SDS011;25713;-35.352;149.036;2023-04-26T12:56:48;3.03;;;1.73;;
40022;SDS011;25713;-35.352;149.036;2023-04-26T12:59:18;4.78;;;1.83;;
40022;SDS011;25713;-35.352;149.036;2023-04-26T13:01:47;5.07;;;1.90;;
40022;SDS011;25713;-35.352;149.036;2023-04-26T13:04:16;3.65;;;1.50;;
40022;SDS011;25713;-35.352;149.036;2023-04-26T13:06:46;4.75;;;1.60;;
40022;SDS011;25713;-35.352;149.036;2023-04-26T13:09:17;6.47;;;1.80;;
40022;SDS011;25713;-35.352;149.036;2023-04-26T13:11:47;6.35;;;1.67;;
40022;SDS011;25713;-35.352;149.036;2023-04-26T13:14:16;5.03;;;1.65;;
40022;SDS011;25713;-35.352;149.036;2023-04-26T13:16:45;3.40;;;1.60;;
40022;SDS011;25713;-35.352;149.036;2023-04-26T13:19:15;4.95;;;1.70;;
40022;SDS011;25713;-35.352;149.036;2023-04-26T13:21:44;4.40;;;1.90;;
40022;SDS011;25713;-35.352;149.036;2023-04-26T13:24:14;4.20;;;1.60;;
40022;SDS011;25713;-35.352;149.036;2023-04-26T13:26:45;5.47;;;1.98;;
40022;SDS011;25713;-35.352;149.036;2023-04-26T13:29:14;2.95;;;1.52;;
40022;SDS011;25713;-35.352;149.036;2023-04-26T13:31:43;4.90;;;1.77;;
40022;SDS011;25713;-35.352;149.036;2023-04-26T13:34:13;5.40;;;1.50;;
40022;SDS011;25713;-35.352;149.036;2023-04-26T13:36:43;4.10;;;1.60;;
40022;SDS011;25713;-35.352;149.036;2023-04-26T13:39:12;4.95;;;1.65;;
40022;SDS011;25713;-35.352;149.036;2023-04-26T13:41:44;2.85;;;1.60;;
40022;SDS011;25713;-35.352;149.036;2023-04-26T13:44:13;5.47;;;1.80;;
40022;SDS011;25713;-35.352;149.036;2023-04-26T13:46:42;3.60;;;1.70;;
40022;SDS011;25713;-35.352;149.036;2023-04-26T13:49:12;3.90;;;1.92;;
40022;SDS011;25713;-35.352;149.036;2023-04-26T13:51:41;5.60;;;1.52;;
40022;SDS011;25713;-35.352;149.036;2023-04-26T13:54:11;4.65;;;1.50;;
40022;SDS011;25713;-35.352;149.036;2023-04-26T13:56:40;2.90;;;1.60;;
40022;SDS011;25713;-35.352;149.036;2023-04-26T13:59:11;3.67;;;1.70;;
40022;SDS011;25713;-35.352;149.036;2023-04-26T14:01:41;3.90;;;1.58;;
40022;SDS011;25713;-35.352;149.036;2023-04-26T14:04:10;3.70;;;1.60;;
40022;SDS011;25713;-35.352;149.036;2023-04-26T14:06:40;4.60;;;1.52;;
40022;SDS011;25713;-35.352;149.036;2023-04-26T14:09:09;3.17;;;1.60;;
40022;SDS011;25713;-35.352;149.036;2023-04-26T14:11:39;5.25;;;1.58;;
40022;SDS011;25713;-35.352;149.036;2023-04-26T14:14:10;2.90;;;1.60;;
40022;SDS011;25713;-35.352;149.036;2023-04-26T14:16:39;2.95;;;1.73;;
40022;SDS011;25713;-35.352;149.036;2023-04-26T14:19:09;3.08;;;1.70;;
40022;SDS011;25713;-35.352;149.036;2023-04-26T14:21:38;3.30;;;1.58;;
40022;SDS011;25713;-35.352;149.036;2023-04-26T14:24:08;3.75;;;1.55;;
40022;SDS011;25713;-35.352;149.036;2023-04-26T14:26:37;3.13;;;1.52;;
40022;SDS011;25713;-35.352;149.036;2023-04-26T14:29:06;3.45;;;1.52;;
40022;SDS011;25713;-35.352;149.036;2023-04-26T14:31:38;4.63;;;1.90;;
40022;SDS011;25713;-35.352;149.036;2023-04-26T14:34:07;4.18;;;1.65;;
40022;SDS011;25713;-35.352;149.036;2023-04-26T14:36:36;3.47;;;1.73;;
40022;SDS011;25713;-35.352;149.036;2023-04-26T14:39:06;4.63;;;1.85;;
40022;SDS011;25713;-35.352;149.036;2023-04-26T14:41:35;3.15;;;1.60;;
40022;SDS011;25713;-35.352;149.036;2023-04-26T14:44:05;5.78;;;1.80;;
40022;SDS011;25713;-35.352;149.036;2023-04-26T14:46:36;3.88;;;1.77;;
40022;SDS011;25713;-35.352;149.036;2023-04-26T15:51:20;3.55;;;2.20;;
40022;SDS011;25713;-35.352;149.036;2023-04-26T15:53:50;4.20;;;2.40;;
40022;SDS011;25713;-35.352;149.036;2023-04-26T15:56:19;3.85;;;2.20;;
40022;SDS011;25713;-35.352;149.036;2023-04-26T15:58:48;6.22;;;2.75;;
40022;SDS011;25713;-35.352;149.036;2023-04-26T16:01:18;4.90;;;2.20;;